sensor_id;sensor_type;location;lat;lon;timestamp;P1;durP1;ratioP1;P2;durP2;ratioP2
32333;SDS011;18810;53.040;8.850;2023-04-06T00:01:40;22.10;;;14.38;;
32333;SDS011;18810;53.040;8.850;2023-04-06T00:04:06;21.80;;;14.15;;
32333;SDS011;18810;53.040;8.850;2023-04-06T00:06:32;19.48;;;13.55;;
32333;SDS011;18810;53.040;8.850;2023-04-06T00:08:58;22.05;;;15.38;;
32333;SDS011;18810;53.040;8.850;2023-04-06T00:11:25;21.13;;;14.55;;
32333;SDS011;18810;53.040;8.850;2023-04-06T00:13:52;21.17;;;14.65;;
32333;SDS011;18810;53.040;8.850;2023-04-06T00:16:18;20.60;;;14.00;;
32333;SDS011;18810;53.040;8.850;2023-04-06T00:18:44;20.30;;;14.40;;
32333;SDS011;18810;53.040;8.850;2023-04-06T00:21:13;19.15;;;13.65;;
32333;SDS011;18810;53.040;8.850;2023-04-06T00:23:40;20.83;;;13.65;;
32333;SDS011;18810;53.040;8.850;2023-04-06T00:26:06;22.33;;;15.23;;
32333;SDS011;18810;53.040;8.850;2023-04-06T00:28:33;23.45;;;14.65;;
32333;SDS011;18810;53.040;8.850;2023-04-06T00:30:59;25.75;;;16.13;;
32333;SDS011;18810;53.040;8.850;2023-04-06T00:33:25;20.13;;;15.00;;
32333;SDS011;18810;53.040;8.850;2023-04-06T00:35:50;23.50;;;15.00;;
32333;SDS011;18810;53.040;8.850;2023-04-06T00:38:16;21.40;;;15.70;;
32333;SDS011;18810;53.040;8.850;2023-04-06T00:40:42;22.92;;;15.65;;
32333;SDS011;18810;53.040;8.850;2023-04-06T00:43:12;22.15;;;15.25;;
32333;SDS011;18810;53.040;8.850;2023-04-06T00:45:38;22.02;;;15.68;;
32333;SDS011;18810;53.040;8.850;2023-04-06T00:48:05;22.40;;;15.40;;
32333;SDS011;18810;53.040;8.850;2023-04-06T00:50:32;22.35;;;15.50;;
32333;SDS011;18810;53.040;8.850;2023-04-06T00:52:58;22.92;;;15.27;;
32333;SDS011;18810;53.040;8.850;2023-04-06T00:55:25;24.08;;;14.77;;
32333;SDS011;18810;53.040;8.850;2023-04-06T00:57:51;21.60;;;14.98;;
32333;SDS011;18810;53.040;8.850;2023-04-06T01:00:17;21.35;;;14.90;;
32333;SDS011;18810;53.040;8.850;2023-04-06T01:02:43;23.42;;;14.98;;
32333;SDS011;18810;53.040;8.850;2023-04-06T01:05:10;23.33;;;15.77;;
32333;SDS011;18810;53.040;8.850;2023-04-06T01:07:36;21.20;;;15.25;;
32333;SDS011;18810;53.040;8.850;2023-04-06T01:10:02;22.92;;;15.45;;
32333;SDS011;18810;53.040;8.850;2023-04-06T01:12:29;27.70;;;15.57;;
32333;SDS011;18810;53.040;8.850;2023-04-06T01:14:58;23.05;;;14.77;;
32333;SDS011;18810;53.040;8.850;2023-04-06T01:17:24;21.63;;;15.05;;
32333;SDS011;18810;53.040;8.850;2023-04-06T01:19:50;22.95;;;14.90;;
32333;SDS011;18810;53.040;8.850;2023-04-06T01:22:18;25.05;;;15.80;;
32333;SDS011;18810;53.040;8.850;2023-04-06T01:24:44;20.75;;;13.82;;
32333;SDS011;18810;53.040;8.850;2023-04-06T01:27:11;21.73;;;14.90;;
32333;SDS011;18810;53.040;8.850;2023-04-06T01:29:37;20.75;;;14.73;;
32333;SDS011;18810;53.040;8.850;2023-04-06T01:32:02;23.55;;;13.18;;
32333;SDS011;18810;53.040;8.850;2023-04-06T01:34:28;21.77;;;14.60;;
32333;SDS011;18810;53.040;8.850;2023-04-06T01:36:54;19.98;;;14.30;;
32333;SDS011;18810;53.040;8.850;2023-04-06T01:39:20;23.75;;;14.57;;
32333;SDS011;18810;53.040;8.850;2023-04-06T01:41:46;18.95;;;14.77;;
32333;SDS011;18810;53.040;8.850;2023-04-06T01:44:16;21.08;;;14.18;;
32333;SDS011;18810;53.040;8.850;2023-04-06T01:46:43;18.83;;;13.80;;
32333;SDS011;18810;53.040;8.850;2023-04-06T01:49:09;20.17;;;14.30;;
32333;SDS011;18810;53.040;8.850;2023-04-06T01:51:35;17.83;;;13.43;;
32333;SDS011;18810;53.040;8.850;2023-04-06T01:54:01;16.88;;;13.43;;
32333;SDS011;18810;53.040;8.850;2023-04-06T01:56:28;21.50;;;14.15;;
32333;SDS011;18810;53.040;8.850;2023-04-06T01:58:53;21.70;;;14.25;;
32333;SDS011;18810;53.040;8.850;2023-04-06T02:01:20;19.80;;;13.57;;
32333;SDS011;18810;53.040;8.850;2023-04-06T02:03:46;21.65;;;14.40;;
32333;SDS011;18810;53.040;8.850;2023-04-06T02:06:12;19.33;;;13.32;;
32333;SDS011;18810;53.040;8.850;2023-04-06T02:08:37;19.40;;;13.73;;
32333;SDS011;18810;53.040;8.850;2023-04-06T02:11:03;20.92;;;13.82;;
32333;SDS011;18810;53.040;8.850;2023-04-06T02:13:29;19.35;;;13.98;;
32333;SDS011;18810;53.040;8.850;2023-04-06T02:15:55;19.23;;;13.40;;
32333;SDS011;18810;53.040;8.850;2023-04-06T02:18:22;21.98;;;13.50;;
32333;SDS011;18810;53.040;8.850;2023-04-06T02:20:48;20.45;;;14.68;;
32333;SDS011;18810;53.040;8.850;2023-04-06T02:23:14;20.48;;;13.80;;
32333;SDS011;18810;53.040;8.850;2023-04-06T02:25:40;17.60;;;12.55;;
32333;SDS011;18810;53.040;8.850;2023-04-06T02:28:06;17.77;;;13.50;;
32333;SDS011;18810;53.040;8.850;2023-04-06T02:30:31;19.63;;;14.15;;
32333;SDS011;18810;53.040;8.850;2023-04-06T02:32:59;20.50;;;13.65;;
32333;SDS011;18810;53.040;8.850;2023-04-06T02:35:25;18.23;;;13.02;;
32333;SDS011;18810;53.040;8.850;2023-04-06T02:37:52;18.45;;;13.52;;
32333;SDS011;18810;53.040;8.850;2023-04-06T02:40:18;19.20;;;12.90;;
32333;SDS011;18810;53.040;8.850;2023-04-06T02:42:44;21.02;;;13.85;;
32333;SDS011;18810;53.040;8.850;2023-04-06T02:45:10;18.00;;;13.20;;
32333;SDS011;18810;53.040;8.850;2023-04-06T02:47:36;20.08;;;13.73;;
32333;SDS011;18810;53.040;8.850;2023-04-06T02:50:01;21.52;;;13.55;;
32333;SDS011;18810;53.040;8.850;2023-04-06T02:52:28;22.13;;;13.57;;
32333;SDS011;18810;53.040;8.850;2023-04-06T02:54:53;20.88;;;14.88;;
32333;SDS011;18810;53.040;8.850;2023-04-06T02:57:19;21.15;;;14.88;;
32333;SDS011;18810;53.040;8.850;2023-04-06T02:59:45;22.77;;;14.68;;
32333;SDS011;18810;53.040;8.850;2023-04-06T03:02:11;21.92;;;13.88;;
32333;SDS011;18810;53.040;8.850;2023-04-06T03:04:36;23.48;;;15.20;;
32333;SDS011;18810;53.040;8.850;2023-04-06T03:07:02;20.63;;;14.45;;
32333;SDS011;18810;53.040;8.850;2023-04-06T03:09:28;21.80;;;14.82;;
32333;SDS011;18810;53.040;8.850;2023-04-06T03:11:53;19.55;;;14.57;;
32333;SDS011;18810;53.040;8.850;2023-04-06T03:14:20;22.30;;;15.00;;
32333;SDS011;18810;53.040;8.850;2023-04-06T03:16:47;24.38;;;14.48;;
32333;SDS011;18810;53.040;8.850;2023-04-06T03:19:13;19.50;;;14.10;;
32333;SDS011;18810;53.040;8.850;2023-04-06T03:21:39;21.42;;;14.95;;
32333;SDS011;18810;53.040;8.850;2023-04-06T03:24:05;25.60;;;14.65;;
32333;SDS011;18810;53.040;8.850;2023-04-06T03:26:31;21.85;;;14.55;;
32333;SDS011;18810;53.040;8.850;2023-04-06T03:28:56;21.25;;;14.48;;
32333;SDS011;18810;53.040;8.850;2023-04-06T03:31:22;21.98;;;15.65;;
32333;SDS011;18810;53.040;8.850;2023-04-06T03:33:48;21.42;;;14.57;;
32333;SDS011;18810;53.040;8.850;2023-04-06T03:36:14;19.67;;;14.95;;
32333;SDS011;18810;53.040;8.850;2023-04-06T03:38:39;22.95;;;16.00;;
32333;SDS011;18810;53.040;8.850;2023-04-06T03:41:05;24.45;;;16.40;;
32333;SDS011;18810;53.040;8.850;2023-04-06T03:43:31;21.25;;;15.93;;
32333;SDS011;18810;53.040;8.850;2023-04-06T03:45:57;23.08;;;16.00;;
32333;SDS011;18810;53.040;8.850;2023-04-06T03:48:22;23.52;;;16.15;;
32333;SDS011;18810;53.040;8.850;2023-04-06T03:50:48;24.58;;;15.38;;
32333;SDS011;18810;53.040;8.850;2023-04-06T03:53:14;23.13;;;16.27;;
32333;SDS011;18810;53.040;8.850;2023-04-06T03:55:40;23.63;;;15.82;;
32333;SDS011;18810;53.040;8.850;2023-04-06T03:58:06;21.27;;;15.55;;
32333;SDS011;18810;53.040;8.850;2023-04-06T04:00:31;26.38;;;16.48;;
32333;SDS011;18810;53.040;8.850;2023-04-06T04:02:58;23.63;;;16.73;;
32333;SDS011;18810;53.040;8.850;2023-04-06T04:05:24;23.00;;;15.80;;
32333;SDS011;18810;53.040;8.850;2023-04-06T04:07:50;24.40;;;17.00;;
32333;SDS011;18810;53.040;8.850;2023-04-06T04:10:17;23.48;;;17.45;;
32333;SDS011;18810;53.040;8.850;2023-04-06T04:12:42;26.05;;;17.55;;
32333;SDS011;18810;53.040;8.850;2023-04-06T04:15:08;27.73;;;17.52;;
32333;SDS011;18810;53.040;8.850;2023-04-06T04:17:34;25.75;;;17.15;;
32333;SDS011;18810;53.040;8.850;2023-04-06T04:20:00;22.55;;;17.38;;
32333;SDS011;18810;53.040;8.850;2023-04-06T04:22:26;24.30;;;17.85;;
32333;SDS011;18810;53.040;8.850;2023-04-06T04:24:54;26.35;;;17.95;;
32333;SDS011;18810;53.040;8.850;2023-04-06T04:27:20;25.77;;;18.02;;
32333;SDS011;18810;53.040;8.850;2023-04-06T04:29:46;26.10;;;18.23;;
32333;SDS011;18810;53.040;8.850;2023-04-06T04:32:12;23.83;;;17.58;;
32333;SDS011;18810;53.040;8.850;2023-04-06T04:34:38;26.60;;;17.30;;
32333;SDS011;18810;53.040;8.850;2023-04-06T04:37:07;27.40;;;19.23;;
32333;SDS011;18810;53.040;8.850;2023-04-06T04:39:32;30.63;;;19.08;;
32333;SDS011;18810;53.040;8.850;2023-04-06T04:41:58;30.30;;;19.23;;
32333;SDS011;18810;53.040;8.850;2023-04-06T04:44:24;26.80;;;18.65;;
32333;SDS011;18810;53.040;8.850;2023-04-06T04:46:50;23.40;;;17.52;;
32333;SDS011;18810;53.040;8.850;2023-04-06T04:49:15;26.75;;;18.30;;
32333;SDS011;18810;53.040;8.850;2023-04-06T04:51:41;25.65;;;18.55;;
32333;SDS011;18810;53.040;8.850;2023-04-06T04:54:07;26.52;;;18.52;;
32333;SDS011;18810;53.040;8.850;2023-04-06T04:56:33;25.05;;;17.83;;
32333;SDS011;18810;53.040;8.850;2023-04-06T04:58:58;27.20;;;17.45;;
32333;SDS011;18810;53.040;8.850;2023-04-06T05:01:24;27.88;;;18.23;;
32333;SDS011;18810;53.040;8.850;2023-04-06T05:03:50;27.23;;;18.83;;
32333;SDS011;18810;53.040;8.850;2023-04-06T05:06:16;28.27;;;18.15;;
32333;SDS011;18810;53.040;8.850;2023-04-06T05:08:43;26.20;;;17.90;;
32333;SDS011;18810;53.040;8.850;2023-04-06T05:11:09;24.95;;;18.15;;
32333;SDS011;18810;53.040;8.850;2023-04-06T05:13:35;26.23;;;17.45;;
32333;SDS011;18810;53.040;8.850;2023-04-06T05:16:01;26.30;;;17.35;;
32333;SDS011;18810;53.040;8.850;2023-04-06T05:18:27;26.65;;;17.85;;
32333;SDS011;18810;53.040;8.850;2023-04-06T05:20:53;25.98;;;17.67;;
32333;SDS011;18810;53.040;8.850;2023-04-06T05:23:18;26.17;;;17.38;;
32333;SDS011;18810;53.040;8.850;2023-04-06T05:25:44;27.95;;;18.52;;
32333;SDS011;18810;53.040;8.850;2023-04-06T05:28:10;27.45;;;17.42;;
32333;SDS011;18810;53.040;8.850;2023-04-06T05:30:39;31.15;;;18.38;;
32333;SDS011;18810;53.040;8.850;2023-04-06T05:33:05;27.83;;;17.95;;
32333;SDS011;18810;53.040;8.850;2023-04-06T05:35:30;27.42;;;18.90;;
32333;SDS011;18810;53.040;8.850;2023-04-06T05:37:56;29.08;;;18.60;;
32333;SDS011;18810;53.040;8.850;2023-04-06T05:40:22;29.15;;;18.13;;
32333;SDS011;18810;53.040;8.850;2023-04-06T05:42:48;23.88;;;17.30;;
32333;SDS011;18810;53.040;8.850;2023-04-06T05:45:14;25.85;;;16.42;;
32333;SDS011;18810;53.040;8.850;2023-04-06T05:47:42;26.20;;;17.08;;
32333;SDS011;18810;53.040;8.850;2023-04-06T05:50:11;21.58;;;15.88;;
32333;SDS011;18810;53.040;8.850;2023-04-06T05:52:38;24.67;;;15.63;;
32333;SDS011;18810;53.040;8.850;2023-04-06T05:55:08;23.20;;;16.48;;
32333;SDS011;18810;53.040;8.850;2023-04-06T05:57:34;23.25;;;15.93;;
32333;SDS011;18810;53.040;8.850;2023-04-06T06:00:00;24.65;;;16.55;;
32333;SDS011;18810;53.040;8.850;2023-04-06T06:02:25;20.27;;;16.10;;
32333;SDS011;18810;53.040;8.850;2023-04-06T06:04:51;23.65;;;15.65;;
32333;SDS011;18810;53.040;8.850;2023-04-06T06:07:17;24.02;;;16.60;;
32333;SDS011;18810;53.040;8.850;2023-04-06T06:09:43;24.02;;;17.58;;
32333;SDS011;18810;53.040;8.850;2023-04-06T06:12:08;26.15;;;15.88;;
32333;SDS011;18810;53.040;8.850;2023-04-06T06:14:34;22.10;;;16.95;;
32333;SDS011;18810;53.040;8.850;2023-04-06T06:17:00;26.05;;;15.93;;
32333;SDS011;18810;53.040;8.850;2023-04-06T06:19:26;17.95;;;14.80;;
32333;SDS011;18810;53.040;8.850;2023-04-06T06:21:52;29.02;;;16.48;;
32333;SDS011;18810;53.040;8.850;2023-04-06T06:24:17;20.00;;;15.32;;
32333;SDS011;18810;53.040;8.850;2023-04-06T06:26:46;23.73;;;15.48;;
32333;SDS011;18810;53.040;8.850;2023-04-06T06:29:13;21.42;;;16.17;;
32333;SDS011;18810;53.040;8.850;2023-04-06T06:31:40;20.90;;;16.15;;
32333;SDS011;18810;53.040;8.850;2023-04-06T06:34:05;18.65;;;15.32;;
32333;SDS011;18810;53.040;8.850;2023-04-06T06:36:31;20.70;;;15.70;;
32333;SDS011;18810;53.040;8.850;2023-04-06T06:38:58;22.38;;;15.30;;
32333;SDS011;18810;53.040;8.850;2023-04-06T06:41:25;22.52;;;14.15;;
32333;SDS011;18810;53.040;8.850;2023-04-06T06:43:51;22.00;;;15.55;;
32333;SDS011;18810;53.040;8.850;2023-04-06T06:46:17;21.25;;;14.65;;
32333;SDS011;18810;53.040;8.850;2023-04-06T06:48:42;20.95;;;14.23;;
32333;SDS011;18810;53.040;8.850;2023-04-06T06:51:08;17.92;;;14.48;;
32333;SDS011;18810;53.040;8.850;2023-04-06T06:53:34;23.25;;;15.77;;
32333;SDS011;18810;53.040;8.850;2023-04-06T06:56:00;20.40;;;15.00;;
32333;SDS011;18810;53.040;8.850;2023-04-06T06:58:26;21.27;;;14.38;;
32333;SDS011;18810;53.040;8.850;2023-04-06T07:00:55;19.83;;;14.27;;
32333;SDS011;18810;53.040;8.850;2023-04-06T07:03:22;18.42;;;14.48;;
32333;SDS011;18810;53.040;8.850;2023-04-06T07:05:48;18.45;;;14.60;;
32333;SDS011;18810;53.040;8.850;2023-04-06T07:08:18;17.02;;;13.55;;
32333;SDS011;18810;53.040;8.850;2023-04-06T07:10:45;18.27;;;13.43;;
32333;SDS011;18810;53.040;8.850;2023-04-06T07:13:10;20.98;;;14.38;;
32333;SDS011;18810;53.040;8.850;2023-04-06T07:15:37;20.50;;;14.52;;
32333;SDS011;18810;53.040;8.850;2023-04-06T07:18:03;17.98;;;14.43;;
32333;SDS011;18810;53.040;8.850;2023-04-06T07:20:29;17.90;;;14.30;;
32333;SDS011;18810;53.040;8.850;2023-04-06T07:22:54;19.42;;;13.20;;
32333;SDS011;18810;53.040;8.850;2023-04-06T07:25:20;21.77;;;13.98;;
32333;SDS011;18810;53.040;8.850;2023-04-06T07:27:46;18.05;;;13.60;;
32333;SDS011;18810;53.040;8.850;2023-04-06T07:30:13;17.20;;;13.80;;
32333;SDS011;18810;53.040;8.850;2023-04-06T07:32:39;19.02;;;13.52;;
32333;SDS011;18810;53.040;8.850;2023-04-06T07:35:04;17.88;;;13.52;;
32333;SDS011;18810;53.040;8.850;2023-04-06T07:37:30;19.65;;;13.52;;
32333;SDS011;18810;53.040;8.850;2023-04-06T07:39:56;19.13;;;14.00;;
32333;SDS011;18810;53.040;8.850;2023-04-06T07:42:22;16.35;;;13.48;;
32333;SDS011;18810;53.040;8.850;2023-04-06T07:44:48;19.20;;;13.07;;
32333;SDS011;18810;53.040;8.850;2023-04-06T07:47:13;18.88;;;13.13;;
32333;SDS011;18810;53.040;8.850;2023-04-06T07:49:39;17.42;;;12.98;;
32333;SDS011;18810;53.040;8.850;2023-04-06T07:52:05;16.38;;;13.05;;
32333;SDS011;18810;53.040;8.850;2023-04-06T07:54:30;20.23;;;13.73;;
32333;SDS011;18810;53.040;8.850;2023-04-06T07:56:56;19.40;;;13.73;;
32333;SDS011;18810;53.040;8.850;2023-04-06T07:59:22;17.23;;;13.90;;
32333;SDS011;18810;53.040;8.850;2023-04-06T08:01:48;17.73;;;12.57;;
32333;SDS011;18810;53.040;8.850;2023-04-06T08:04:13;15.68;;;12.70;;
32333;SDS011;18810;53.040;8.850;2023-04-06T08:06:39;17.00;;;13.70;;
32333;SDS011;18810;53.040;8.850;2023-04-06T08:09:05;19.63;;;14.02;;
32333;SDS011;18810;53.040;8.850;2023-04-06T08:11:31;16.52;;;13.18;;
32333;SDS011;18810;53.040;8.850;2023-04-06T08:13:57;15.48;;;12.65;;
32333;SDS011;18810;53.040;8.850;2023-04-06T08:16:23;19.40;;;13.43;;
32333;SDS011;18810;53.040;8.850;2023-04-06T08:18:49;16.48;;;12.32;;
32333;SDS011;18810;53.040;8.850;2023-04-06T08:21:15;14.88;;;12.55;;
32333;SDS011;18810;53.040;8.850;2023-04-06T08:23:41;22.35;;;13.75;;
32333;SDS011;18810;53.040;8.850;2023-04-06T08:26:07;16.55;;;12.10;;
32333;SDS011;18810;53.040;8.850;2023-04-06T08:28:32;16.90;;;12.93;;
32333;SDS011;18810;53.040;8.850;2023-04-06T08:31:02;14.70;;;11.88;;
32333;SDS011;18810;53.040;8.850;2023-04-06T08:33:29;15.18;;;12.63;;
32333;SDS011;18810;53.040;8.850;2023-04-06T08:35:55;17.50;;;12.90;;
32333;SDS011;18810;53.040;8.850;2023-04-06T08:38:21;16.27;;;12.57;;
32333;SDS011;18810;53.040;8.850;2023-04-06T08:40:46;19.30;;;12.30;;
32333;SDS011;18810;53.040;8.850;2023-04-06T08:43:14;14.93;;;11.80;;
32333;SDS011;18810;53.040;8.850;2023-04-06T08:45:44;14.68;;;11.73;;
32333;SDS011;18810;53.040;8.850;2023-04-06T08:48:11;15.55;;;12.02;;
32333;SDS011;18810;53.040;8.850;2023-04-06T08:50:38;15.70;;;12.18;;
32333;SDS011;18810;53.040;8.850;2023-04-06T08:53:05;15.40;;;11.48;;
32333;SDS011;18810;53.040;8.850;2023-04-06T08:55:32;17.05;;;12.52;;
32333;SDS011;18810;53.040;8.850;2023-04-06T08:57:58;21.88;;;13.02;;
32333;SDS011;18810;53.040;8.850;2023-04-06T09:00:25;17.25;;;12.70;;
32333;SDS011;18810;53.040;8.850;2023-04-06T09:02:54;18.38;;;12.13;;
32333;SDS011;18810;53.040;8.850;2023-04-06T09:05:23;14.80;;;12.25;;
32333;SDS011;18810;53.040;8.850;2023-04-06T09:07:50;17.73;;;13.07;;
32333;SDS011;18810;53.040;8.850;2023-04-06T09:10:16;15.23;;;12.27;;
32333;SDS011;18810;53.040;8.850;2023-04-06T09:12:42;19.65;;;12.52;;
32333;SDS011;18810;53.040;8.850;2023-04-06T09:15:17;16.85;;;12.73;;
32333;SDS011;18810;53.040;8.850;2023-04-06T09:17:45;15.85;;;12.07;;
32333;SDS011;18810;53.040;8.850;2023-04-06T09:20:11;15.48;;;12.85;;
32333;SDS011;18810;53.040;8.850;2023-04-06T09:22:40;15.10;;;12.70;;
32333;SDS011;18810;53.040;8.850;2023-04-06T09:25:09;18.52;;;12.45;;
32333;SDS011;18810;53.040;8.850;2023-04-06T09:27:43;17.27;;;12.75;;
32333;SDS011;18810;53.040;8.850;2023-04-06T09:30:10;15.60;;;12.88;;
32333;SDS011;18810;53.040;8.850;2023-04-06T09:32:54;18.25;;;12.55;;
32333;SDS011;18810;53.040;8.850;2023-04-06T09:35:21;15.97;;;12.53;;
32333;SDS011;18810;53.040;8.850;2023-04-06T09:37:49;17.55;;;13.10;;
32333;SDS011;18810;53.040;8.850;2023-04-06T09:40:17;15.48;;;12.30;;
32333;SDS011;18810;53.040;8.850;2023-04-06T09:42:47;16.63;;;12.43;;
32333;SDS011;18810;53.040;8.850;2023-04-06T09:45:15;17.40;;;13.40;;
32333;SDS011;18810;53.040;8.850;2023-04-06T09:47:43;17.92;;;12.55;;
32333;SDS011;18810;53.040;8.850;2023-04-06T09:50:10;16.67;;;12.70;;
32333;SDS011;18810;53.040;8.850;2023-04-06T09:52:39;15.15;;;12.55;;
32333;SDS011;18810;53.040;8.850;2023-04-06T09:55:12;19.02;;;12.98;;
32333;SDS011;18810;53.040;8.850;2023-04-06T09:58:04;16.55;;;12.55;;
32333;SDS011;18810;53.040;8.850;2023-04-06T10:00:32;16.13;;;12.82;;
32333;SDS011;18810;53.040;8.850;2023-04-06T10:05:44;17.45;;;13.13;;
32333;SDS011;18810;53.040;8.850;2023-04-06T10:08:15;16.55;;;13.43;;
32333;SDS011;18810;53.040;8.850;2023-04-06T10:10:43;20.25;;;13.48;;
32333;SDS011;18810;53.040;8.850;2023-04-06T10:13:11;17.80;;;13.52;;
32333;SDS011;18810;53.040;8.850;2023-04-06T10:15:37;19.15;;;13.68;;
32333;SDS011;18810;53.040;8.850;2023-04-06T10:18:04;23.13;;;14.07;;
32333;SDS011;18810;53.040;8.850;2023-04-06T10:20:42;19.60;;;13.77;;
32333;SDS011;18810;53.040;8.850;2023-04-06T10:23:26;17.50;;;13.80;;
32333;SDS011;18810;53.040;8.850;2023-04-06T10:26:00;18.55;;;14.07;;
32333;SDS011;18810;53.040;8.850;2023-04-06T10:28:30;18.98;;;14.23;;
32333;SDS011;18810;53.040;8.850;2023-04-06T10:30:59;20.95;;;14.05;;
32333;SDS011;18810;53.040;8.850;2023-04-06T10:33:26;17.48;;;13.65;;
32333;SDS011;18810;53.040;8.850;2023-04-06T10:35:52;22.63;;;14.77;;
32333;SDS011;18810;53.040;8.850;2023-04-06T10:38:19;20.95;;;13.73;;
32333;SDS011;18810;53.040;8.850;2023-04-06T10:40:49;17.80;;;13.80;;
32333;SDS011;18810;53.040;8.850;2023-04-06T10:43:18;19.13;;;14.07;;
32333;SDS011;18810;53.040;8.850;2023-04-06T10:45:52;17.80;;;13.65;;
32333;SDS011;18810;53.040;8.850;2023-04-06T10:48:21;16.65;;;14.23;;
32333;SDS011;18810;53.040;8.850;2023-04-06T10:50:51;17.83;;;13.68;;
32333;SDS011;18810;53.040;8.850;2023-04-06T10:53:21;16.85;;;14.25;;
32333;SDS011;18810;53.040;8.850;2023-04-06T10:55:47;17.08;;;14.15;;
32333;SDS011;18810;53.040;8.850;2023-04-06T10:58:19;21.50;;;14.85;;
32333;SDS011;18810;53.040;8.850;2023-04-06T11:00:45;17.00;;;13.82;;
32333;SDS011;18810;53.040;8.850;2023-04-06T11:03:13;18.98;;;13.70;;
32333;SDS011;18810;53.040;8.850;2023-04-06T11:05:43;19.08;;;14.40;;
32333;SDS011;18810;53.040;8.850;2023-04-06T11:08:22;17.60;;;14.43;;
32333;SDS011;18810;53.040;8.850;2023-04-06T11:10:48;17.98;;;14.40;;
32333;SDS011;18810;53.040;8.850;2023-04-06T11:13:14;18.92;;;13.77;;
32333;SDS011;18810;53.040;8.850;2023-04-06T11:15:40;18.83;;;14.32;;
32333;SDS011;18810;53.040;8.850;2023-04-06T11:18:06;19.48;;;14.43;;
32333;SDS011;18810;53.040;8.850;2023-04-06T11:20:35;20.73;;;13.70;;
32333;SDS011;18810;53.040;8.850;2023-04-06T11:23:00;17.60;;;13.60;;
32333;SDS011;18810;53.040;8.850;2023-04-06T11:25:26;19.83;;;13.32;;
32333;SDS011;18810;53.040;8.850;2023-04-06T11:27:52;19.40;;;14.40;;
32333;SDS011;18810;53.040;8.850;2023-04-06T11:30:19;18.85;;;14.48;;
32333;SDS011;18810;53.040;8.850;2023-04-06T11:32:45;18.35;;;13.55;;
32333;SDS011;18810;53.040;8.850;2023-04-06T11:35:21;19.95;;;13.63;;
32333;SDS011;18810;53.040;8.850;2023-04-06T11:37:48;18.10;;;13.23;;
32333;SDS011;18810;53.040;8.850;2023-04-06T11:40:15;23.10;;;15.05;;
32333;SDS011;18810;53.040;8.850;2023-04-06T11:42:51;18.85;;;13.63;;
32333;SDS011;18810;53.040;8.850;2023-04-06T11:45:18;19.60;;;14.05;;
32333;SDS011;18810;53.040;8.850;2023-04-06T11:47:44;18.27;;;13.23;;
32333;SDS011;18810;53.040;8.850;2023-04-06T11:50:10;17.73;;;13.75;;
32333;SDS011;18810;53.040;8.850;2023-04-06T11:52:38;17.00;;;13.48;;
32333;SDS011;18810;53.040;8.850;2023-04-06T11:55:13;20.05;;;13.13;;
32333;SDS011;18810;53.040;8.850;2023-04-06T11:57:43;17.88;;;13.82;;
32333;SDS011;18810;53.040;8.850;2023-04-06T12:00:10;20.63;;;13.25;;
32333;SDS011;18810;53.040;8.850;2023-04-06T12:02:36;19.25;;;13.15;;
32333;SDS011;18810;53.040;8.850;2023-04-06T12:05:04;19.63;;;13.65;;
32333;SDS011;18810;53.040;8.850;2023-04-06T12:07:31;20.33;;;14.52;;
32333;SDS011;18810;53.040;8.850;2023-04-06T12:09:58;20.70;;;14.43;;
32333;SDS011;18810;53.040;8.850;2023-04-06T12:12:25;20.90;;;14.13;;
32333;SDS011;18810;53.040;8.850;2023-04-06T12:14:51;21.15;;;14.43;;
32333;SDS011;18810;53.040;8.850;2023-04-06T12:17:18;18.17;;;14.07;;
32333;SDS011;18810;53.040;8.850;2023-04-06T12:19:44;18.80;;;13.90;;
32333;SDS011;18810;53.040;8.850;2023-04-06T12:22:10;19.65;;;14.60;;
32333;SDS011;18810;53.040;8.850;2023-04-06T12:24:35;21.25;;;13.98;;
32333;SDS011;18810;53.040;8.850;2023-04-06T12:27:01;21.80;;;15.18;;
32333;SDS011;18810;53.040;8.850;2023-04-06T12:29:28;17.67;;;13.60;;
32333;SDS011;18810;53.040;8.850;2023-04-06T12:31:53;19.17;;;12.63;;
32333;SDS011;18810;53.040;8.850;2023-04-06T12:34:19;18.33;;;14.00;;
32333;SDS011;18810;53.040;8.850;2023-04-06T12:36:45;18.27;;;13.48;;
32333;SDS011;18810;53.040;8.850;2023-04-06T12:39:11;24.45;;;14.48;;
32333;SDS011;18810;53.040;8.850;2023-04-06T12:41:37;17.25;;;13.25;;
32333;SDS011;18810;53.040;8.850;2023-04-06T12:44:05;18.08;;;13.68;;
32333;SDS011;18810;53.040;8.850;2023-04-06T12:46:31;18.17;;;14.50;;
32333;SDS011;18810;53.040;8.850;2023-04-06T12:48:57;19.52;;;13.98;;
32333;SDS011;18810;53.040;8.850;2023-04-06T12:51:24;19.77;;;14.07;;
32333;SDS011;18810;53.040;8.850;2023-04-06T12:53:52;20.23;;;14.82;;
32333;SDS011;18810;53.040;8.850;2023-04-06T12:56:18;17.83;;;14.27;;
32333;SDS011;18810;53.040;8.850;2023-04-06T12:58:46;18.92;;;13.75;;
32333;SDS011;18810;53.040;8.850;2023-04-06T13:01:12;16.77;;;14.02;;
32333;SDS011;18810;53.040;8.850;2023-04-06T13:03:38;19.08;;;14.23;;
32333;SDS011;18810;53.040;8.850;2023-04-06T13:06:05;16.63;;;12.73;;
32333;SDS011;18810;53.040;8.850;2023-04-06T13:08:31;17.45;;;13.18;;
32333;SDS011;18810;53.040;8.850;2023-04-06T13:10:56;15.57;;;12.85;;
32333;SDS011;18810;53.040;8.850;2023-04-06T13:13:23;18.70;;;14.48;;
32333;SDS011;18810;53.040;8.850;2023-04-06T13:15:50;19.08;;;14.85;;
32333;SDS011;18810;53.040;8.850;2023-04-06T13:18:17;18.92;;;14.38;;
32333;SDS011;18810;53.040;8.850;2023-04-06T13:20:43;17.65;;;13.98;;
32333;SDS011;18810;53.040;8.850;2023-04-06T13:23:08;22.38;;;14.38;;
32333;SDS011;18810;53.040;8.850;2023-04-06T13:25:34;18.65;;;13.65;;
32333;SDS011;18810;53.040;8.850;2023-04-06T13:28:00;20.98;;;15.05;;
32333;SDS011;18810;53.040;8.850;2023-04-06T13:30:26;18.13;;;14.80;;
32333;SDS011;18810;53.040;8.850;2023-04-06T13:32:52;16.42;;;12.98;;
32333;SDS011;18810;53.040;8.850;2023-04-06T13:35:18;14.63;;;11.50;;
32333;SDS011;18810;53.040;8.850;2023-04-06T13:37:44;17.38;;;12.88;;
32333;SDS011;18810;53.040;8.850;2023-04-06T13:40:10;21.25;;;13.32;;
32333;SDS011;18810;53.040;8.850;2023-04-06T13:42:36;18.58;;;13.57;;
32333;SDS011;18810;53.040;8.850;2023-04-06T13:45:05;17.83;;;14.70;;
32333;SDS011;18810;53.040;8.850;2023-04-06T13:47:31;17.98;;;14.52;;
32333;SDS011;18810;53.040;8.850;2023-04-06T13:49:57;18.98;;;14.50;;
32333;SDS011;18810;53.040;8.850;2023-04-06T13:52:22;18.60;;;14.20;;
32333;SDS011;18810;53.040;8.850;2023-04-06T13:54:48;19.38;;;15.10;;
32333;SDS011;18810;53.040;8.850;2023-04-06T13:57:15;17.98;;;13.82;;
32333;SDS011;18810;53.040;8.850;2023-04-06T13:59:41;17.83;;;14.10;;
32333;SDS011;18810;53.040;8.850;2023-04-06T14:02:07;19.00;;;14.35;;
32333;SDS011;18810;53.040;8.850;2023-04-06T14:04:35;19.25;;;13.40;;
32333;SDS011;18810;53.040;8.850;2023-04-06T14:07:01;16.60;;;13.50;;
32333;SDS011;18810;53.040;8.850;2023-04-06T14:09:28;19.77;;;14.60;;
32333;SDS011;18810;53.040;8.850;2023-04-06T14:11:54;18.98;;;13.90;;
32333;SDS011;18810;53.040;8.850;2023-04-06T14:14:21;19.42;;;13.32;;
32333;SDS011;18810;53.040;8.850;2023-04-06T14:16:48;18.65;;;13.75;;
32333;SDS011;18810;53.040;8.850;2023-04-06T14:19:14;15.48;;;12.52;;
32333;SDS011;18810;53.040;8.850;2023-04-06T14:21:42;22.40;;;14.05;;